createdAt,value
2023-11-30T00:01:36.586Z,97867.50
2023-11-30T00:04:03.928Z,97865.25
2023-11-30T00:06:37.151Z,97866.09
2023-11-30T00:09:04.839Z,97863.41
2023-11-30T00:11:34.827Z,97862.59
2023-11-30T00:14:02.335Z,97851.06
2023-11-30T00:16:30.205Z,97852.69
2023-11-30T00:18:58.133Z,97855.78
2023-11-30T00:21:25.844Z,97853.09
2023-11-30T00:23:53.213Z,97861.75
2023-11-30T00:26:20.941Z,97858.87
2023-11-30T00:28:48.183Z,97858.47
2023-11-30T00:31:15.168Z,97860.09
2023-11-30T00:33:43.069Z,97852.91
2023-11-30T00:36:10.770Z,97858.06
2023-11-30T00:38:38.220Z,97856.41
2023-11-30T00:41:05.967Z,97851.47
2023-11-30T00:43:33.179Z,97860.94
2023-11-30T00:46:07.131Z,97861.56
2023-11-30T00:48:37.809Z,97851.87
2023-11-30T00:51:05.364Z,97853.94
2023-11-30T00:53:32.261Z,97850.44
2023-11-30T00:56:00.941Z,97851.25
2023-11-30T00:58:29.577Z,97859.28
2023-11-30T01:00:57.147Z,97862.16
2023-11-30T01:03:24.910Z,97865.88
2023-11-30T01:05:52.943Z,97867.53
2023-11-30T01:08:20.590Z,97857.63
2023-11-30T01:10:48.589Z,97871.84
2023-11-30T01:13:16.221Z,97872.66
2023-11-30T01:15:45.435Z,97870.19
2023-11-30T01:18:13.201Z,97872.06
2023-11-30T01:20:40.799Z,97859.72
2023-11-30T01:23:07.682Z,97844.69
2023-11-30T01:25:35.741Z,97846.94
2023-11-30T01:28:02.690Z,97835.84
2023-11-30T01:30:30.294Z,97835.19
2023-11-30T01:33:00.507Z,97839.72
2023-11-30T01:35:30.497Z,97828.84
2023-11-30T01:37:58.097Z,97840.53
2023-11-30T01:40:25.712Z,97834.19
2023-11-30T01:42:52.558Z,97817.91
2023-11-30T01:45:20.125Z,97808.25
2023-11-30T01:47:47.732Z,97801.66
2023-11-30T01:50:17.967Z,97800.22
2023-11-30T01:52:45.874Z,97788.06
2023-11-30T01:55:13.924Z,97787.84
2023-11-30T01:57:42.162Z,97772.03
2023-11-30T02:00:11.427Z,97756.19
2023-11-30T02:02:39.632Z,97766.91
2023-11-30T02:05:08.252Z,97772.03
2023-11-30T02:07:35.904Z,97771.00
2023-11-30T02:10:04.195Z,97776.56
2023-11-30T02:12:31.110Z,97775.75
2023-11-30T02:15:00.827Z,97765.03
2023-11-30T02:17:28.718Z,97761.75
2023-11-30T02:19:56.259Z,97762.13
2023-11-30T02:22:23.949Z,97751.25
2023-11-30T02:24:51.574Z,97751.44
2023-11-30T02:27:19.328Z,97756.38
2023-11-30T02:29:46.791Z,97754.13
2023-11-30T02:32:14.516Z,97752.25
2023-11-30T02:34:42.122Z,97757.84
2023-11-30T02:37:09.816Z,97751.44
2023-11-30T02:39:38.848Z,97747.94
2023-11-30T02:42:07.052Z,97749.59
2023-11-30T02:44:34.382Z,97745.69
2023-11-30T02:47:02.389Z,97734.34
2023-11-30T02:49:30.098Z,97733.34
2023-11-30T02:51:58.095Z,97732.53
2023-11-30T02:54:25.260Z,97723.03
2023-11-30T02:56:52.968Z,97726.72
2023-11-30T02:59:20.607Z,97725.91
2023-11-30T03:01:48.311Z,97717.06
2023-11-30T03:04:16.249Z,97702.66
2023-11-30T03:06:44.040Z,97699.75
2023-11-30T03:09:12.311Z,97697.91
2023-11-30T03:11:40.699Z,97687.19
2023-11-30T03:14:07.933Z,97680.44
2023-11-30T03:16:35.446Z,97684.75
2023-11-30T03:19:14.374Z,97680.44
2023-11-30T03:21:44.847Z,97683.91
2023-11-30T03:24:12.945Z,97681.25
2023-11-30T03:26:40.212Z,97680.44
2023-11-30T03:29:07.835Z,97674.84
2023-11-30T03:31:37.648Z,97675.69
2023-11-30T03:34:06.549Z,97674.84
2023-11-30T03:36:34.500Z,97671.38
2023-11-30T03:39:02.322Z,97667.06
2023-11-30T03:41:29.551Z,97658.22
2023-11-30T03:43:56.903Z,97656.34
2023-11-30T03:46:28.348Z,97648.09
2023-11-30T03:48:57.001Z,97646.47
2023-11-30T03:51:25.216Z,97648.53
2023-11-30T03:53:52.860Z,97657.62
2023-11-30T03:56:20.823Z,97662.13
2023-11-30T03:58:47.659Z,97666.22
2023-11-30T04:01:22.573Z,97661.09
2023-11-30T04:03:50.647Z,97655.75
2023-11-30T04:06:24.627Z,97660.87
2023-11-30T04:08:53.944Z,97657.62
2023-11-30T04:11:21.839Z,97661.09
2023-11-30T04:13:49.744Z,97650.41
2023-11-30T04:16:18.518Z,97642.38
2023-11-30T04:18:46.145Z,97627.34
2023-11-30T04:21:14.507Z,97610.47
2023-11-30T04:23:41.731Z,97616.63
2023-11-30T04:26:09.275Z,97607.78
2023-11-30T04:28:37.233Z,97613.97
2023-11-30T04:31:04.483Z,97605.94
2023-11-30T04:33:32.421Z,97600.59
2023-11-30T04:36:00.206Z,97601.22
2023-11-30T04:38:27.935Z,97583.94
2023-11-30T04:40:55.501Z,97590.91
2023-11-30T04:43:26.701Z,97596.91
2023-11-30T04:45:54.625Z,97601.63
2023-11-30T04:48:22.122Z,97598.94
2023-11-30T04:50:49.376Z,97594.63
2023-11-30T04:53:16.605Z,97604.91
2023-11-30T04:55:43.563Z,97588.47
2023-11-30T04:58:13.430Z,97594.63
2023-11-30T05:00:41.046Z,97601.25
2023-11-30T05:03:08.601Z,97602.66
2023-11-30T05:05:36.163Z,97600.81
2023-11-30T05:08:04.899Z,97591.97
2023-11-30T05:10:31.790Z,97593.44
2023-11-30T05:12:59.563Z,97594.63
2023-11-30T05:15:27.096Z,97593.44
2023-11-30T05:17:55.082Z,97596.94
2023-11-30T05:20:22.680Z,97595.31
2023-11-30T05:22:51.620Z,97595.09
2023-11-30T05:25:19.364Z,97594.50
2023-11-30T05:27:47.278Z,97581.56
2023-11-30T05:30:14.883Z,97583.19
2023-11-30T05:32:43.178Z,97582.16
2023-11-30T05:35:13.515Z,97575.75
2023-11-30T05:37:41.697Z,97575.97
2023-11-30T05:40:10.942Z,97582.38
2023-11-30T05:42:38.214Z,97583.19
2023-11-30T05:45:06.151Z,97584.81
2023-11-30T05:47:33.906Z,97575.63
2023-11-30T05:50:01.286Z,97577.63
2023-11-30T05:52:28.398Z,97575.38
2023-11-30T05:54:57.033Z,97576.87
2023-11-30T05:57:25.311Z,97593.75
2023-11-30T05:59:52.597Z,97606.28
2023-11-30T06:02:22.256Z,97603.41
2023-11-30T06:04:51.906Z,97607.34
2023-11-30T06:07:19.795Z,97602.81
2023-11-30T06:09:47.310Z,97596.41
2023-11-30T06:12:14.696Z,97600.94
2023-11-30T06:14:42.554Z,97597.47
2023-11-30T06:17:10.169Z,97595.59
2023-11-30T06:19:37.954Z,97599.91
2023-11-30T06:22:05.657Z,97601.19
2023-11-30T06:24:35.352Z,97592.09
2023-11-30T06:27:04.164Z,97597.47
2023-11-30T06:29:31.414Z,97606.28
2023-11-30T06:32:02.268Z,97613.06
2023-11-30T06:34:34.530Z,97616.34
2023-11-30T06:37:01.785Z,97603.78
2023-11-30T06:39:30.260Z,97612.84
2023-11-30T06:41:57.887Z,97601.31
2023-11-30T06:44:25.177Z,97595.53
2023-11-30T06:46:52.764Z,97590.63
2023-11-30T06:49:20.223Z,97590.63
2023-11-30T06:51:47.358Z,97588.53
2023-11-30T06:54:14.935Z,97589.59
2023-11-30T06:56:42.161Z,97577.03
2023-11-30T06:59:09.421Z,97584.22
2023-11-30T07:01:38.016Z,97591.00
2023-11-30T07:04:06.182Z,97585.06
2023-11-30T07:06:33.759Z,97585.66
2023-11-30T07:09:01.549Z,97584.81
2023-11-30T07:11:29.094Z,97587.94
2023-11-30T07:13:56.220Z,97593.66
2023-11-30T07:16:23.448Z,97588.31
2023-11-30T07:18:52.971Z,97598.78
2023-11-30T07:21:19.976Z,97597.31
2023-11-30T07:23:47.405Z,97596.50
2023-11-30T07:26:15.609Z,97588.47
2023-11-30T07:28:43.884Z,97575.91
2023-11-30T07:31:21.755Z,97574.88
2023-11-30T07:33:49.629Z,97572.00
2023-11-30T07:36:17.290Z,97570.97
2023-11-30T07:38:44.824Z,97567.25
2023-11-30T07:41:12.972Z,97568.47
2023-11-30T07:43:40.486Z,97569.09
2023-11-30T07:46:08.148Z,97561.66
2023-11-30T07:48:35.499Z,97565.38
2023-11-30T07:51:03.106Z,97567.84
2023-11-30T07:53:31.061Z,97567.84
2023-11-30T07:55:58.584Z,97567.03
2023-11-30T07:58:26.231Z,97572.38
2023-11-30T08:00:54.222Z,97570.28
2023-11-30T08:03:22.077Z,97578.91
2023-11-30T08:05:49.107Z,97575.78
2023-11-30T08:08:17.443Z,97577.19
2023-11-30T08:10:44.896Z,97568.94
2023-11-30T08:13:13.670Z,97569.31
2023-11-30T08:15:41.039Z,97574.44
2023-11-30T08:18:09.771Z,97571.53
2023-11-30T08:20:36.835Z,97577.47
2023-11-30T08:23:04.567Z,97570.06
2023-11-30T08:25:31.955Z,97564.25
2023-11-30T08:27:59.492Z,97557.62
2023-11-30T08:30:27.525Z,97557.19
2023-11-30T08:32:55.776Z,97545.44
2023-11-30T08:35:23.281Z,97541.50
2023-11-30T08:37:51.735Z,97537.31
2023-11-30T08:40:19.381Z,97535.44
2023-11-30T08:42:46.644Z,97537.69
2023-11-30T08:45:13.814Z,97548.78
2023-11-30T08:47:43.366Z,97537.63
2023-11-30T08:50:11.322Z,97534.94
2023-11-30T08:52:38.914Z,97543.31
2023-11-30T08:55:06.281Z,97537.75
2023-11-30T08:57:33.711Z,97533.78
2023-11-30T09:00:01.150Z,97548.59
2023-11-30T09:02:28.846Z,97550.22
2023-11-30T09:04:56.173Z,97538.25
2023-11-30T09:07:23.339Z,97539.87
2023-11-30T09:09:54.113Z,97546.63
2023-11-30T09:12:22.241Z,97540.22
2023-11-30T09:14:50.900Z,97538.38
2023-11-30T09:17:18.471Z,97531.19
2023-11-30T09:19:45.761Z,97527.22
2023-11-30T09:22:13.175Z,97528.28
2023-11-30T09:24:40.581Z,97524.31
2023-11-30T09:27:07.768Z,97522.44
2023-11-30T09:29:40.030Z,97511.75
2023-11-30T09:32:07.717Z,97508.00
2023-11-30T09:34:34.957Z,97495.44
2023-11-30T09:37:02.530Z,97494.63
2023-11-30T09:39:30.126Z,97490.91
2023-11-30T09:42:01.499Z,97484.72
2023-11-30T09:44:28.948Z,97488.22
2023-11-30T09:46:57.146Z,97489.84
2023-11-30T09:49:25.207Z,97482.62
2023-11-30T09:51:53.314Z,97470.28
2023-11-30T09:54:21.436Z,97458.28
2023-11-30T09:56:48.286Z,97456.41
2023-11-30T09:59:15.580Z,97454.56
2023-11-30T10:01:44.352Z,97450.00
2023-11-30T10:04:14.598Z,97454.31
2023-11-30T10:06:42.483Z,97443.62
2023-11-30T10:09:14.630Z,97445.47
2023-11-30T10:11:42.586Z,97440.69
2023-11-30T10:14:11.148Z,97432.66
2023-11-30T10:16:38.647Z,97422.75
2023-11-30T10:19:08.268Z,97414.50
2023-11-30T10:21:36.069Z,97412.63
2023-11-30T10:24:03.634Z,97418.81
2023-11-30T10:26:35.158Z,97408.09
2023-11-30T10:29:08.148Z,97397.38
2023-11-30T10:31:36.681Z,97401.69
2023-11-30T10:34:09.127Z,97400.63
2023-11-30T10:36:38.290Z,97403.06
2023-11-30T10:39:19.872Z,97403.88
2023-11-30T10:41:55.193Z,97397.72
2023-11-30T10:44:28.928Z,97388.63
2023-11-30T10:47:00.727Z,97380.81
2023-11-30T10:49:30.522Z,97390.50
2023-11-30T10:52:04.168Z,97389.44
2023-11-30T10:54:36.806Z,97391.06
2023-11-30T10:57:05.275Z,97391.88
2023-11-30T10:59:33.506Z,97384.69
2023-11-30T11:02:01.147Z,97382.59
2023-11-30T11:04:29.749Z,97370.84
2023-11-30T11:07:01.980Z,97367.09
2023-11-30T11:09:42.729Z,97364.19
2023-11-30T11:12:21.363Z,97353.22
2023-11-30T11:14:52.744Z,97343.31
2023-11-30T11:17:26.475Z,97344.62
2023-11-30T11:19:54.132Z,97343.56
2023-11-30T11:22:25.316Z,97339.03
2023-11-30T11:25:02.747Z,97340.41
2023-11-30T11:27:32.251Z,97349.03
2023-11-30T11:30:03.208Z,97344.25
2023-11-30T11:32:33.068Z,97345.62
2023-11-30T11:35:01.283Z,97352.41
2023-11-30T11:37:29.358Z,97350.28
2023-11-30T11:39:58.382Z,97355.41
2023-11-30T11:42:28.319Z,97351.69
2023-11-30T11:44:55.822Z,97341.81
2023-11-30T11:47:23.592Z,97347.16
2023-11-30T11:49:50.752Z,97343.44
2023-11-30T11:52:23.068Z,97342.38
2023-11-30T11:55:24.050Z,97326.88
2023-11-30T11:57:53.562Z,97318.84
2023-11-30T12:00:23.209Z,97312.66
2023-11-30T12:02:51.656Z,97309.97
2023-11-30T12:05:23.572Z,97314.28
2023-11-30T12:07:56.217Z,97312.66
2023-11-30T12:10:40.995Z,97313.25
2023-11-30T12:13:17.677Z,97304.16
2023-11-30T12:15:47.005Z,97300.41
2023-11-30T12:18:15.264Z,97302.50
2023-11-30T12:20:44.118Z,97306.81
2023-11-30T12:23:13.727Z,97307.62
2023-11-30T12:25:41.253Z,97309.75
2023-11-30T12:28:08.600Z,97313.25
2023-11-30T12:30:35.476Z,97299.25
2023-11-30T12:33:03.377Z,97302.75
2023-11-30T12:35:30.829Z,97305.44
2023-11-30T12:37:57.703Z,97299.84
2023-11-30T12:40:25.292Z,97292.84
2023-11-30T12:42:52.562Z,97289.94
2023-11-30T12:45:21.595Z,97288.06
2023-11-30T12:47:50.961Z,97291.31
2023-11-30T12:50:18.400Z,97283.28
2023-11-30T12:52:45.971Z,97277.91
2023-11-30T12:55:14.818Z,97279.53
2023-11-30T12:57:44.426Z,97291.66
2023-11-30T13:00:16.112Z,97273.94
2023-11-30T13:02:47.333Z,97279.87
2023-11-30T13:05:15.299Z,97272.87
2023-11-30T13:07:42.665Z,97274.50
2023-11-30T13:10:13.268Z,97273.69
2023-11-30T13:12:42.447Z,97280.69
2023-11-30T13:15:13.213Z,97275.31
2023-11-30T13:17:41.811Z,97261.69
2023-11-30T13:20:12.874Z,97263.56
2023-11-30T13:22:42.459Z,97250.16
2023-11-30T13:25:11.349Z,97241.03
2023-11-30T13:27:38.779Z,97236.50
2023-11-30T13:30:06.888Z,97229.50
2023-11-30T13:32:35.670Z,97230.31
2023-11-30T13:35:03.931Z,97221.22
2023-11-30T13:37:32.260Z,97223.91
2023-11-30T13:39:59.330Z,97225.78
2023-11-30T13:42:27.406Z,97220.66
2023-11-30T13:44:55.351Z,97224.97
2023-11-30T13:47:23.013Z,97227.41
2023-11-30T13:49:50.409Z,97221.22
2023-11-30T13:52:17.590Z,97226.34
2023-11-30T13:54:46.273Z,97227.41
2023-11-30T13:57:13.926Z,97225.28
2023-11-30T13:59:41.332Z,97221.00
2023-11-30T14:02:09.422Z,97216.44
2023-11-30T14:04:36.990Z,97205.72
2023-11-30T14:07:05.495Z,97206.78
2023-11-30T14:09:33.704Z,97203.28
2023-11-30T14:12:00.604Z,97198.97
2023-11-30T14:14:27.836Z,97195.72
2023-11-30T14:16:55.444Z,97200.50
2023-11-30T14:19:23.495Z,97195.16
2023-11-30T14:21:50.366Z,97198.63
2023-11-30T14:24:17.260Z,97207.97
2023-11-30T14:26:45.759Z,97216.00
2023-11-30T14:29:14.278Z,97205.88
2023-11-30T14:31:41.762Z,97202.38
2023-11-30T14:34:09.079Z,97199.69
2023-11-30T14:36:36.675Z,97188.97
2023-11-30T14:39:05.448Z,97187.34
2023-11-30T14:41:33.483Z,97185.72
2023-11-30T14:44:01.163Z,97186.28
2023-11-30T14:46:28.270Z,97177.69
2023-11-30T14:48:56.895Z,97170.12
2023-11-30T14:51:24.707Z,97158.59
2023-11-30T14:53:51.792Z,97165.66
2023-11-30T14:56:19.288Z,97166.94
2023-11-30T14:58:47.152Z,97153.78
2023-11-30T15:01:14.895Z,97138.28
2023-11-30T15:03:42.883Z,97139.66
2023-11-30T15:06:10.691Z,97134.06
2023-11-30T15:08:37.575Z,97136.97
2023-11-30T15:11:06.009Z,97137.53
2023-11-30T15:13:34.171Z,97136.97
2023-11-30T15:16:01.374Z,97139.09
2023-11-30T15:18:29.383Z,97133.72
2023-11-30T15:20:56.208Z,97136.72
2023-11-30T15:23:23.584Z,97139.91
2023-11-30T15:25:52.160Z,97143.41
2023-11-30T15:28:21.143Z,97139.66
2023-11-30T15:30:48.688Z,97135.34
2023-11-30T15:33:15.593Z,97132.66
2023-11-30T15:35:43.470Z,97118.22
2023-11-30T15:38:10.900Z,97114.97
2023-11-30T15:40:38.268Z,97117.41
2023-11-30T15:43:06.697Z,97121.69
2023-11-30T15:45:36.195Z,97118.53
2023-11-30T15:48:05.129Z,97111.56
2023-11-30T15:50:32.095Z,97110.00
2023-11-30T15:52:59.502Z,97110.50
2023-11-30T15:55:27.979Z,97117.97
2023-11-30T15:57:55.619Z,97116.34
2023-11-30T16:00:23.132Z,97111.31
2023-11-30T16:02:50.848Z,97109.75
2023-11-30T16:05:21.197Z,97109.75
2023-11-30T16:07:49.019Z,97111.38
2023-11-30T16:10:16.461Z,97111.38
2023-11-30T16:12:44.199Z,97116.50
2023-11-30T16:15:12.095Z,97119.44
2023-11-30T16:17:40.616Z,97121.31
2023-11-30T16:20:12.859Z,97120.50
2023-11-30T16:22:42.015Z,97116.75
2023-11-30T16:25:14.145Z,97104.97
2023-11-30T16:27:45.594Z,97090.53
2023-11-30T16:30:13.928Z,97093.22
2023-11-30T16:32:41.391Z,97085.38
2023-11-30T16:35:09.801Z,97099.41
2023-11-30T16:37:37.527Z,97095.91
2023-11-30T16:40:06.204Z,97103.09
2023-11-30T16:42:33.433Z,97101.25
2023-11-30T16:45:01.439Z,97099.41
2023-11-30T16:47:29.161Z,97103.09
2023-11-30T16:49:56.599Z,97104.41
2023-11-30T16:52:23.970Z,97104.97
2023-11-30T16:54:51.859Z,97094.03
2023-11-30T16:57:18.961Z,97095.31
2023-11-30T16:59:46.855Z,97088.06
2023-11-30T17:02:14.167Z,97085.38
2023-11-30T17:04:45.976Z,97078.97
2023-11-30T17:07:13.243Z,97075.25
2023-11-30T17:09:42.275Z,97074.19
2023-11-30T17:12:12.756Z,97080.13
2023-11-30T17:14:40.416Z,97076.63
2023-11-30T17:17:09.663Z,97068.84
2023-11-30T17:19:36.671Z,97069.66
2023-11-30T17:22:04.371Z,97060.06
2023-11-30T17:24:34.107Z,97069.97
2023-11-30T17:27:01.381Z,97076.97
2023-11-30T17:29:28.656Z,97090.94
2023-11-30T17:31:55.909Z,97086.94
2023-11-30T17:34:23.745Z,97089.31
2023-11-30T17:36:52.710Z,97087.44
2023-11-30T17:39:20.020Z,97088.81
2023-11-30T17:41:47.047Z,97093.38
2023-11-30T17:44:14.379Z,97096.06
2023-11-30T17:46:45.228Z,97093.62
2023-11-30T17:49:21.675Z,97094.09
2023-11-30T17:51:49.314Z,97095.66
2023-11-30T17:54:17.140Z,97085.75
2023-11-30T17:56:44.769Z,97086.78
2023-11-30T17:59:15.312Z,97069.09
2023-11-30T18:01:42.939Z,97074.09
2023-11-30T18:04:11.902Z,97089.69
2023-11-30T18:06:39.359Z,97090.03
2023-11-30T18:09:06.878Z,97093.53
2023-11-30T18:11:33.866Z,97095.41
2023-11-30T18:14:01.994Z,97096.78
2023-11-30T18:16:29.133Z,97093.22
2023-11-30T18:18:56.879Z,97090.28
2023-11-30T18:21:26.484Z,97089.47
2023-11-30T18:23:54.575Z,97085.75
2023-11-30T18:26:24.340Z,97071.28
2023-11-30T18:28:54.221Z,97083.38
2023-11-30T18:31:23.025Z,97084.19
2023-11-30T18:33:51.687Z,97082.31
2023-11-30T18:36:19.342Z,97084.19
2023-11-30T18:38:50.958Z,97092.00
2023-11-30T18:41:21.690Z,97084.19
2023-11-30T18:43:51.167Z,97080.69
2023-11-30T18:46:19.642Z,97078.34
2023-11-30T18:48:47.804Z,97084.75
2023-11-30T18:51:16.155Z,97087.44
2023-11-30T18:53:45.489Z,97101.34
2023-11-30T18:56:13.820Z,97093.88
2023-11-30T18:58:44.228Z,97085.56
2023-11-30T19:01:12.414Z,97086.94
2023-11-30T19:03:40.322Z,97092.56
2023-11-30T19:06:15.979Z,97085.56
2023-11-30T19:08:44.249Z,97084.50
2023-11-30T19:11:17.616Z,97081.03
2023-11-30T19:13:45.728Z,97081.84
2023-11-30T19:16:23.844Z,97089.63
2023-11-30T19:18:52.879Z,97076.97
2023-11-30T19:21:21.143Z,97064.38
2023-11-30T19:23:51.400Z,97059.81
2023-11-30T19:26:20.017Z,97063.06
2023-11-30T19:28:47.981Z,97067.63
2023-11-30T19:31:15.216Z,97058.75
2023-11-30T19:33:43.967Z,97047.78
2023-11-30T19:36:12.576Z,97053.38
2023-11-30T19:38:40.602Z,97069.47
2023-11-30T19:41:08.820Z,97069.22
2023-11-30T19:43:37.609Z,97073.78
2023-11-30T19:46:05.806Z,97087.19
2023-11-30T19:48:34.555Z,97083.47
2023-11-30T19:51:03.066Z,97093.38
2023-11-30T19:53:31.444Z,97081.59
2023-11-30T19:56:00.272Z,97075.41
2023-11-30T19:58:28.185Z,97075.66
2023-11-30T20:00:56.214Z,97081.84
2023-11-30T20:03:24.593Z,97074.84
2023-11-30T20:05:53.054Z,97070.03
2023-11-30T20:08:21.204Z,97072.66
2023-11-30T20:10:52.080Z,97078.59
2023-11-30T20:13:21.065Z,97067.28
2023-11-30T20:15:49.079Z,97074.03
2023-11-30T20:18:16.938Z,97075.66
2023-11-30T20:20:45.067Z,97079.97
2023-11-30T20:23:13.926Z,97092.56
2023-11-30T20:25:41.733Z,97097.91
2023-11-30T20:28:09.153Z,97099.53
2023-11-30T20:30:37.711Z,97094.69
2023-11-30T20:33:05.619Z,97087.44
2023-11-30T20:35:34.187Z,97085.56
2023-11-30T20:38:02.699Z,97083.94
2023-11-30T20:40:30.721Z,97079.16
2023-11-30T20:42:58.095Z,97074.59
2023-11-30T20:45:26.301Z,97097.09
2023-11-30T20:47:54.066Z,97090.84
2023-11-30T20:50:21.576Z,97079.06
2023-11-30T20:52:49.209Z,97078.50
2023-11-30T20:55:17.029Z,97088.50
2023-11-30T20:57:46.123Z,97093.53
2023-11-30T21:00:13.753Z,97105.88
2023-11-30T21:02:41.953Z,97103.22
2023-11-30T21:05:09.676Z,97107.50
2023-11-30T21:07:37.403Z,97113.94
2023-11-30T21:10:05.114Z,97118.50
2023-11-30T21:12:32.645Z,97114.41
2023-11-30T21:15:00.503Z,97111.25
2023-11-30T21:17:27.619Z,97099.47
2023-11-30T21:19:55.404Z,97099.97
2023-11-30T21:22:22.601Z,97099.47
2023-11-30T21:24:49.535Z,97106.13
2023-11-30T21:27:17.612Z,97109.63
2023-11-30T21:29:44.929Z,97103.44
2023-11-30T21:32:13.311Z,97116.88
2023-11-30T21:34:41.541Z,97116.88
2023-11-30T21:37:08.754Z,97129.22
2023-11-30T21:39:36.282Z,97128.97
2023-11-30T21:42:04.218Z,97121.97
2023-11-30T21:44:31.682Z,97126.03
2023-11-30T21:46:59.066Z,97128.97
2023-11-30T21:49:26.980Z,97127.09
2023-11-30T21:51:54.100Z,97117.66
2023-11-30T21:54:21.306Z,97119.28
2023-11-30T21:56:49.129Z,97118.72
2023-11-30T21:59:17.593Z,97116.88
2023-11-30T22:01:45.627Z,97124.91
2023-11-30T22:04:13.107Z,97129.22
2023-11-30T22:06:43.567Z,97141.31
2023-11-30T22:09:11.288Z,97139.12
2023-11-30T22:11:38.506Z,97145.53
2023-11-30T22:14:05.893Z,97135.87
2023-11-30T22:16:38.343Z,97136.44
2023-11-30T22:19:06.579Z,97146.12
2023-11-30T22:21:34.734Z,97132.94
2023-11-30T22:24:02.011Z,97142.63
2023-11-30T22:26:29.142Z,97136.69
2023-11-30T22:28:57.780Z,97137.75
2023-11-30T22:31:24.974Z,97137.97
2023-11-30T22:33:52.225Z,97132.38
2023-11-30T22:36:20.320Z,97139.62
2023-11-30T22:38:47.218Z,97152.53
2023-11-30T22:41:15.116Z,97163.81
2023-11-30T22:43:42.635Z,97176.41
2023-11-30T22:46:18.631Z,97165.44
2023-11-30T22:48:47.169Z,97158.47
2023-11-30T22:51:14.123Z,97161.38
2023-11-30T22:53:41.441Z,97164.88
2023-11-30T22:56:17.681Z,97170.25
2023-11-30T22:58:45.576Z,97174.56
2023-11-30T23:01:14.379Z,97172.94
2023-11-30T23:03:42.189Z,97165.69
2023-11-30T23:06:10.288Z,97159.53
2023-11-30T23:08:37.760Z,97158.72
2023-11-30T23:11:05.970Z,97166.50
2023-11-30T23:13:33.433Z,97170.25
2023-11-30T23:16:02.257Z,97165.94
2023-11-30T23:18:31.889Z,97157.41
2023-11-30T23:21:00.277Z,97166.25
2023-11-30T23:23:27.968Z,97168.94
2023-11-30T23:25:55.461Z,97174.22
2023-11-30T23:28:22.632Z,97176.66
2023-11-30T23:30:50.097Z,97164.06
2023-11-30T23:33:17.990Z,97176.66
2023-11-30T23:35:45.329Z,97178.53
2023-11-30T23:38:12.886Z,97184.47
2023-11-30T23:40:40.548Z,97183.09
2023-11-30T23:43:07.957Z,97182.84
2023-11-30T23:45:35.995Z,97177.22
2023-11-30T23:48:03.271Z,97173.75
2023-11-30T23:50:30.895Z,97182.59
2023-11-30T23:52:58.094Z,97185.53
2023-11-30T23:55:25.241Z,97178.03
2023-11-30T23:57:53.116Z,97185.28
